createdAt,value
2023-04-05T00:01:07.914Z,2.20
2023-04-05T00:03:38.277Z,2.10
2023-04-05T00:06:07.798Z,2.10
2023-04-05T00:08:35.995Z,2.10
2023-04-05T00:11:04.235Z,2.00
2023-04-05T00:13:32.313Z,2.00
2023-04-05T00:16:01.450Z,1.90
2023-04-05T00:18:34.389Z,1.80
2023-04-05T00:21:03.717Z,1.70
2023-04-05T00:23:37.432Z,1.60
2023-04-05T00:26:05.409Z,1.50
2023-04-05T00:28:33.332Z,1.50
2023-04-05T00:31:01.170Z,1.50
2023-04-05T00:33:29.053Z,1.50
2023-04-05T00:35:56.978Z,1.50
2023-04-05T00:38:26.198Z,1.50
2023-04-05T00:40:54.241Z,1.40
2023-04-05T00:43:22.054Z,1.30
2023-04-05T00:45:49.924Z,1.20
2023-04-05T00:48:18.138Z,1.20
2023-04-05T00:50:47.340Z,1.20
2023-04-05T00:53:15.830Z,1.20
2023-04-05T00:55:45.549Z,1.20
2023-04-05T00:58:13.431Z,1.20
2023-04-05T01:00:43.470Z,1.30
2023-04-05T01:03:13.724Z,1.30
2023-04-05T01:05:48.762Z,1.20
2023-04-05T01:08:23.053Z,1.20
2023-04-05T01:10:58.745Z,1.20
2023-04-05T01:13:27.256Z,1.20
2023-04-05T01:15:55.179Z,1.10
2023-04-05T01:18:24.547Z,1.10
2023-04-05T01:21:00.400Z,1.00
2023-04-05T01:23:38.723Z,1.00
2023-04-05T01:26:31.657Z,0.90
2023-04-05T01:29:29.840Z,0.90
2023-04-05T01:32:16.183Z,0.80
2023-04-05T01:34:52.584Z,0.80
2023-04-05T01:37:23.769Z,0.70
2023-04-05T01:39:52.309Z,0.70
2023-04-05T01:42:26.318Z,0.50
2023-04-05T01:44:55.192Z,0.50
2023-04-05T01:47:24.441Z,0.40
2023-04-05T01:49:52.381Z,0.20
2023-04-05T01:52:20.282Z,0.10
2023-04-05T01:54:48.170Z,0.10
2023-04-05T01:57:16.001Z,0.10
2023-04-05T01:59:43.906Z,0.20
2023-04-05T02:02:12.011Z,0.30
2023-04-05T02:04:42.319Z,0.40
2023-04-05T02:07:10.190Z,0.40
2023-04-05T02:09:38.013Z,0.50
2023-04-05T02:12:06.142Z,0.60
2023-04-05T02:14:33.951Z,0.60
2023-04-05T02:17:03.284Z,0.60
2023-04-05T02:19:37.222Z,0.60
2023-04-05T02:22:06.804Z,0.60
2023-04-05T02:24:35.006Z,0.60
2023-04-05T02:27:02.949Z,0.60
2023-04-05T02:29:31.766Z,0.60
2023-04-05T02:31:59.785Z,0.60
2023-04-05T02:34:27.798Z,0.60
2023-04-05T02:36:55.997Z,0.70
2023-04-05T02:39:25.311Z,0.70
2023-04-05T02:41:53.156Z,0.60
2023-04-05T02:44:21.043Z,0.60
2023-04-05T02:46:49.196Z,0.60
2023-04-05T02:49:17.308Z,0.60
2023-04-05T02:51:45.116Z,0.60
2023-04-05T02:54:12.964Z,0.60
2023-04-05T02:56:42.819Z,0.60
2023-04-05T02:59:10.959Z,0.60
2023-04-05T03:01:42.874Z,0.60
2023-04-05T03:04:12.206Z,0.60
2023-04-05T03:06:44.607Z,0.60
2023-04-05T03:09:12.520Z,0.60
2023-04-05T03:11:41.765Z,0.50
2023-04-05T03:14:09.640Z,0.50
2023-04-05T03:16:40.104Z,0.50
2023-04-05T03:19:09.099Z,0.50
2023-04-05T03:21:37.304Z,0.50
2023-04-05T03:24:05.649Z,0.50
2023-04-05T03:26:33.746Z,0.40
2023-04-05T03:29:03.184Z,0.40
2023-04-05T03:31:31.062Z,0.40
2023-04-05T03:33:59.014Z,0.40
2023-04-05T03:36:28.840Z,0.30
2023-04-05T03:38:56.792Z,0.30
2023-04-05T03:41:24.664Z,0.20
2023-04-05T03:43:52.531Z,0.20
2023-04-05T03:46:22.074Z,0.20
2023-04-05T03:48:49.972Z,0.20
2023-04-05T03:51:18.933Z,0.20
2023-04-05T03:53:47.153Z,0.10
2023-04-05T03:56:15.146Z,0.20
2023-04-05T03:58:43.304Z,0.20
2023-04-05T04:01:11.517Z,0.20
2023-04-05T04:03:40.707Z,0.10
2023-04-05T04:06:09.251Z,0.10
2023-04-05T04:08:37.205Z,0.10
2023-04-05T04:11:05.424Z,0.10
2023-04-05T04:13:33.458Z,0.10
2023-04-05T04:16:01.321Z,0.10
2023-04-05T04:18:29.144Z,0.10
2023-04-05T04:20:58.639Z,0.00
2023-04-05T04:23:27.258Z,0.00
2023-04-05T04:25:55.868Z,0.00
2023-04-05T04:28:25.179Z,0.00
2023-04-05T04:30:53.078Z,0.00
2023-04-05T04:33:21.126Z,-0.10
2023-04-05T04:35:49.048Z,-0.20
2023-04-05T04:38:20.628Z,-0.30
2023-04-05T04:40:50.852Z,-0.40
2023-04-05T04:43:18.885Z,-0.50
2023-04-05T04:45:48.684Z,-0.50
2023-04-05T04:48:17.265Z,-0.50
2023-04-05T04:50:45.358Z,-0.50
2023-04-05T04:53:14.264Z,-0.40
2023-04-05T04:55:43.623Z,-0.30
2023-04-05T04:58:12.913Z,-0.30
2023-04-05T05:00:41.868Z,-0.30
2023-04-05T05:03:11.493Z,-0.30
2023-04-05T05:05:43.734Z,-0.20
2023-04-05T05:08:11.690Z,-0.20
2023-04-05T05:10:39.989Z,-0.20
2023-04-05T05:13:11.081Z,-0.20
2023-04-05T05:15:40.928Z,-0.20
2023-04-05T05:18:08.887Z,-0.20
2023-04-05T05:20:37.454Z,-0.20
2023-04-05T05:23:05.873Z,-0.20
2023-04-05T05:25:33.768Z,-0.10
2023-04-05T05:28:01.698Z,-0.10
2023-04-05T05:30:31.034Z,-0.10
2023-04-05T05:32:59.002Z,-0.10
2023-04-05T05:35:28.098Z,0.00
2023-04-05T05:37:55.982Z,0.00
2023-04-05T05:40:23.850Z,0.10
2023-04-05T05:42:51.795Z,0.10
2023-04-05T05:45:19.792Z,0.10
2023-04-05T05:47:49.044Z,0.20
2023-04-05T05:50:20.512Z,0.20
2023-04-05T05:52:48.350Z,0.20
2023-04-05T05:55:16.287Z,0.20
2023-04-05T05:57:44.122Z,0.40
2023-04-05T06:00:13.185Z,0.30
2023-04-05T06:02:41.360Z,0.40
2023-04-05T06:05:10.886Z,0.40
2023-04-05T06:07:38.924Z,0.50
2023-04-05T06:10:08.101Z,0.60
2023-04-05T06:12:36.562Z,0.60
2023-04-05T06:15:04.759Z,0.70
2023-04-05T06:17:34.195Z,0.70
2023-04-05T06:20:02.166Z,0.80
2023-04-05T06:22:31.477Z,0.90
2023-04-05T06:24:59.365Z,1.00
2023-04-05T06:27:27.226Z,1.10
2023-04-05T06:29:55.802Z,1.10
2023-04-05T06:32:23.729Z,1.20
2023-04-05T06:34:51.742Z,1.30
2023-04-05T06:37:19.577Z,1.40
2023-04-05T06:39:48.849Z,1.50
2023-04-05T06:42:16.862Z,1.60
2023-04-05T06:44:44.690Z,1.70
2023-04-05T06:47:12.542Z,1.80
2023-04-05T06:49:40.461Z,1.90
2023-04-05T06:52:08.511Z,2.00
2023-04-05T06:54:39.355Z,2.00
2023-04-05T06:57:08.545Z,2.10
2023-04-05T06:59:36.662Z,2.20
2023-04-05T07:02:04.583Z,2.30
2023-04-05T07:04:36.660Z,2.40
2023-04-05T07:07:04.986Z,2.40
2023-04-05T07:09:34.289Z,2.50
2023-04-05T07:12:04.131Z,2.70
2023-04-05T07:14:34.117Z,2.70
2023-04-05T07:17:02.382Z,2.80
2023-04-05T07:19:30.302Z,2.90
2023-04-05T07:21:58.194Z,3.00
2023-04-05T07:24:26.061Z,3.10
2023-04-05T07:26:53.901Z,3.20
2023-04-05T07:29:21.756Z,3.20
2023-04-05T07:31:51.089Z,3.30
2023-04-05T07:34:18.903Z,3.40
2023-04-05T07:36:47.333Z,3.50
2023-04-05T07:39:15.937Z,3.70
2023-04-05T07:41:43.755Z,3.80
2023-04-05T07:44:11.946Z,4.00
2023-04-05T07:46:46.157Z,4.20
2023-04-05T07:49:16.844Z,4.50
2023-04-05T07:51:44.707Z,4.80
2023-04-05T07:54:12.564Z,5.20
2023-04-05T07:56:40.592Z,5.70
2023-04-05T07:59:08.863Z,6.20
2023-04-05T08:01:36.894Z,6.60
2023-04-05T08:04:04.746Z,7.00
2023-04-05T08:06:33.974Z,7.50
2023-04-05T08:09:03.827Z,7.60
2023-04-05T08:11:31.688Z,7.80
2023-04-05T08:13:59.550Z,8.20
2023-04-05T08:16:27.423Z,8.60
2023-04-05T08:18:55.466Z,8.70
2023-04-05T08:21:23.760Z,8.80
2023-04-05T08:23:53.253Z,9.20
2023-04-05T08:26:21.129Z,9.40
2023-04-05T08:28:48.913Z,9.60
2023-04-05T08:31:16.774Z,9.90
2023-04-05T08:33:44.749Z,10.10
2023-04-05T08:36:12.688Z,10.40
2023-04-05T08:38:40.634Z,10.60
2023-04-05T08:41:15.866Z,10.80
2023-04-05T08:43:56.429Z,10.80
2023-04-05T08:46:24.577Z,10.90
2023-04-05T08:48:52.808Z,11.00
2023-04-05T08:51:21.847Z,10.80
2023-04-05T08:53:50.463Z,10.90
2023-04-05T08:56:22.402Z,11.20
2023-04-05T08:58:58.068Z,11.40
2023-04-05T09:01:28.924Z,11.80
2023-04-05T09:03:58.250Z,12.20
2023-04-05T09:06:27.085Z,12.30
2023-04-05T09:08:56.623Z,12.20
2023-04-05T09:11:27.181Z,12.70
2023-04-05T09:13:55.065Z,12.80
2023-04-05T09:16:23.811Z,12.70
2023-04-05T09:18:51.712Z,13.00
2023-04-05T09:21:20.504Z,13.30
2023-04-05T09:23:54.002Z,13.60
2023-04-05T09:26:23.102Z,13.40
2023-04-05T09:28:52.631Z,13.20
2023-04-05T09:31:34.725Z,13.20
2023-04-05T09:34:05.131Z,13.10
2023-04-05T09:36:35.304Z,13.10
2023-04-05T09:39:08.327Z,13.40
2023-04-05T09:41:37.359Z,13.30
2023-04-05T09:44:06.595Z,13.70
2023-04-05T09:46:37.979Z,13.70
2023-04-05T09:49:07.830Z,13.50
2023-04-05T09:51:37.044Z,13.90
2023-04-05T09:54:07.233Z,13.70
2023-04-05T09:56:37.562Z,13.90
2023-04-05T09:59:10.972Z,14.50
2023-04-05T10:01:41.353Z,14.70
2023-04-05T10:04:09.970Z,15.00
2023-04-05T10:06:39.595Z,14.70
2023-04-05T10:09:08.677Z,15.00
2023-04-05T10:11:37.809Z,14.90
2023-04-05T10:14:08.432Z,14.60
2023-04-05T10:16:39.697Z,14.20
2023-04-05T10:19:15.386Z,13.10
2023-04-05T10:21:46.142Z,13.20
2023-04-05T10:24:21.151Z,12.90
2023-04-05T10:27:00.973Z,13.10
2023-04-05T10:29:39.662Z,13.10
2023-04-05T10:32:15.250Z,13.70
2023-04-05T10:34:56.783Z,13.70
2023-04-05T10:37:31.533Z,14.10
2023-04-05T10:40:04.078Z,14.20
2023-04-05T10:42:41.770Z,14.10
2023-04-05T10:45:15.466Z,13.90
2023-04-05T10:47:49.158Z,14.20
2023-04-05T10:50:23.361Z,14.30
2023-04-05T10:52:53.125Z,14.30
2023-04-05T10:55:22.027Z,14.30
2023-04-05T10:57:51.465Z,14.50
2023-04-05T11:00:21.847Z,14.30
2023-04-05T11:02:54.927Z,14.10
2023-04-05T11:05:34.399Z,14.20
2023-04-05T11:08:06.145Z,13.80
2023-04-05T11:10:37.476Z,13.30
2023-04-05T11:13:10.671Z,13.00
2023-04-05T11:15:40.192Z,13.20
2023-04-05T11:18:10.637Z,13.60
2023-04-05T11:20:43.583Z,13.70
2023-04-05T11:23:12.241Z,13.90
2023-04-05T11:25:41.565Z,14.40
2023-04-05T11:28:09.967Z,14.50
2023-04-05T11:30:50.674Z,14.10
2023-04-05T11:33:37.834Z,14.20
2023-04-05T11:36:06.908Z,14.40
2023-04-05T11:38:35.172Z,15.00
2023-04-05T11:41:17.409Z,14.90
2023-04-05T11:43:47.564Z,14.40
2023-04-05T11:46:17.050Z,14.20
2023-04-05T11:48:45.346Z,14.00
2023-04-05T11:51:13.487Z,14.40
2023-04-05T11:53:41.716Z,14.40
2023-04-05T11:56:13.619Z,14.30
2023-04-05T11:58:41.625Z,14.10
2023-04-05T12:01:10.465Z,14.10
2023-04-05T12:03:39.792Z,14.30
2023-04-05T12:06:08.749Z,14.60
2023-04-05T12:08:41.790Z,14.30
2023-04-05T12:11:11.519Z,14.00
2023-04-05T12:13:40.505Z,13.70
2023-04-05T12:16:11.191Z,14.00
2023-04-05T12:18:40.447Z,14.20
2023-04-05T12:21:09.994Z,14.50
2023-04-05T12:23:38.313Z,14.50
2023-04-05T12:26:08.194Z,14.90
2023-04-05T12:28:52.817Z,14.80
2023-04-05T12:31:39.008Z,15.10
2023-04-05T12:34:09.257Z,15.50
2023-04-05T12:36:37.600Z,15.60
2023-04-05T12:39:08.683Z,15.70
2023-04-05T12:41:37.878Z,16.00
2023-04-05T12:44:06.886Z,16.00
2023-04-05T12:46:42.145Z,16.20
2023-04-05T12:49:14.133Z,16.50
2023-04-05T12:51:46.317Z,16.50
2023-04-05T12:54:15.350Z,16.60
2023-04-05T12:56:43.528Z,16.50
2023-04-05T12:59:11.428Z,16.70
2023-04-05T13:01:39.789Z,16.20
2023-04-05T13:04:16.202Z,15.80
2023-04-05T13:06:47.583Z,15.40
2023-04-05T13:09:15.868Z,15.50
2023-04-05T13:11:43.744Z,15.90
2023-04-05T13:14:11.619Z,16.20
2023-04-05T13:16:39.556Z,16.50
2023-04-05T13:19:07.486Z,16.50
2023-04-05T13:21:35.404Z,16.20
2023-04-05T13:24:04.783Z,16.10
2023-04-05T13:26:32.715Z,15.90
2023-04-05T13:29:00.582Z,15.90
2023-04-05T13:31:28.618Z,15.60
2023-04-05T13:33:56.512Z,15.40
2023-04-05T13:36:24.457Z,15.40
2023-04-05T13:38:52.310Z,15.00
2023-04-05T13:41:21.608Z,14.60
2023-04-05T13:43:49.535Z,14.20
2023-04-05T13:46:17.395Z,14.50
2023-04-05T13:48:45.458Z,14.60
2023-04-05T13:51:13.354Z,15.30
2023-04-05T13:53:41.316Z,15.10
2023-04-05T13:56:09.243Z,14.90
2023-04-05T13:58:38.386Z,15.30
2023-04-05T14:01:06.317Z,15.30
2023-04-05T14:03:34.287Z,14.90
2023-04-05T14:06:02.246Z,14.40
2023-04-05T14:08:30.179Z,14.50
2023-04-05T14:10:58.054Z,14.50
2023-04-05T14:13:26.371Z,14.60
2023-04-05T14:15:55.884Z,14.30
2023-04-05T14:18:23.941Z,14.20
2023-04-05T14:20:51.982Z,14.30
2023-04-05T14:23:19.961Z,14.60
2023-04-05T14:25:47.971Z,14.70
2023-04-05T14:28:15.922Z,14.40
2023-04-05T14:30:43.951Z,13.80
2023-04-05T14:33:14.861Z,13.80
2023-04-05T14:35:43.060Z,13.40
2023-04-05T14:38:12.619Z,13.00
2023-04-05T14:40:42.688Z,12.70
2023-04-05T14:43:11.029Z,12.60
2023-04-05T14:45:39.005Z,12.60
2023-04-05T14:48:07.370Z,12.70
2023-04-05T14:50:36.759Z,12.70
2023-04-05T14:53:04.689Z,12.50
2023-04-05T14:55:32.782Z,12.60
2023-04-05T14:58:00.861Z,12.40
2023-04-05T15:00:28.941Z,12.20
2023-04-05T15:02:57.152Z,12.20
2023-04-05T15:05:25.597Z,12.20
2023-04-05T15:07:55.021Z,12.30
2023-04-05T15:10:23.044Z,12.20
2023-04-05T15:12:51.019Z,12.40
2023-04-05T15:15:19.000Z,12.50
2023-04-05T15:17:47.014Z,12.40
2023-04-05T15:20:15.468Z,12.30
2023-04-05T15:22:43.562Z,12.30
2023-04-05T15:25:13.703Z,12.30
2023-04-05T15:27:41.670Z,12.40
2023-04-05T15:30:10.794Z,12.60
2023-04-05T15:32:38.780Z,12.50
2023-04-05T15:35:07.440Z,12.50
2023-04-05T15:37:35.939Z,12.40
2023-04-05T15:40:08.171Z,12.40
2023-04-05T15:42:37.531Z,12.50
2023-04-05T15:45:06.489Z,12.60
2023-04-05T15:47:34.824Z,12.70
2023-04-05T15:50:02.860Z,12.70
2023-04-05T15:52:30.818Z,12.70
2023-04-05T15:54:58.732Z,12.90
2023-04-05T15:57:26.654Z,13.10
2023-04-05T15:59:55.944Z,13.10
2023-04-05T16:02:23.972Z,13.00
2023-04-05T16:04:51.955Z,12.80
2023-04-05T16:07:20.288Z,12.80
2023-04-05T16:09:48.228Z,12.80
2023-04-05T16:12:16.636Z,12.90
2023-04-05T16:14:44.656Z,12.70
2023-04-05T16:17:14.048Z,12.60
2023-04-05T16:19:42.225Z,12.50
2023-04-05T16:22:10.657Z,12.50
2023-04-05T16:24:39.302Z,12.50
2023-04-05T16:27:07.505Z,12.30
2023-04-05T16:29:35.448Z,12.20
2023-04-05T16:32:03.648Z,12.30
2023-04-05T16:34:33.024Z,12.40
2023-04-05T16:37:01.036Z,12.50
2023-04-05T16:39:29.213Z,12.30
2023-04-05T16:41:57.147Z,12.20
2023-04-05T16:44:25.416Z,12.00
2023-04-05T16:46:53.830Z,12.00
2023-04-05T16:49:21.761Z,12.10
2023-04-05T16:51:51.390Z,12.00
2023-04-05T16:54:19.656Z,11.80
2023-04-05T16:56:47.663Z,11.70
2023-04-05T16:59:15.736Z,11.70
2023-04-05T17:01:43.916Z,11.70
2023-04-05T17:04:12.066Z,11.50
2023-04-05T17:06:40.042Z,11.30
2023-04-05T17:09:09.379Z,11.10
2023-04-05T17:11:37.336Z,10.90
2023-04-05T17:14:05.587Z,10.70
2023-04-05T17:16:33.600Z,10.60
2023-04-05T17:19:01.917Z,10.50
2023-04-05T17:21:30.196Z,10.30
2023-04-05T17:23:58.204Z,10.20
2023-04-05T17:26:29.075Z,10.00
2023-04-05T17:28:57.105Z,10.00
2023-04-05T17:31:25.541Z,9.90
2023-04-05T17:33:53.597Z,9.90
2023-04-05T17:36:21.618Z,9.80
2023-04-05T17:38:49.593Z,9.70
2023-04-05T17:41:17.564Z,9.60
2023-04-05T17:43:47.420Z,9.50
2023-04-05T17:46:20.006Z,9.30
2023-04-05T17:48:52.673Z,9.20
2023-04-05T17:51:21.992Z,9.10
2023-04-05T17:53:50.044Z,9.00
2023-04-05T17:56:17.975Z,8.90
2023-04-05T17:58:47.650Z,8.90
2023-04-05T18:01:15.808Z,8.80
2023-04-05T18:03:43.986Z,8.70
2023-04-05T18:06:12.306Z,8.70
2023-04-05T18:08:40.346Z,8.50
2023-04-05T18:11:08.281Z,8.40
2023-04-05T18:13:36.449Z,8.30
2023-04-05T18:16:06.859Z,8.20
2023-04-05T18:18:35.849Z,8.00
2023-04-05T18:21:04.523Z,7.90
2023-04-05T18:23:32.478Z,7.70
2023-04-05T18:26:06.990Z,7.70
2023-04-05T18:28:35.197Z,7.50
2023-04-05T18:31:03.258Z,7.30
2023-04-05T18:33:32.706Z,7.20
2023-04-05T18:36:00.716Z,7.00
2023-04-05T18:38:29.100Z,6.90
2023-04-05T18:41:03.403Z,6.80
2023-04-05T18:43:32.059Z,6.60
2023-04-05T18:46:00.022Z,6.60
2023-04-05T18:48:28.090Z,6.50
2023-04-05T18:50:57.720Z,6.50
2023-04-05T18:53:26.222Z,6.40
2023-04-05T18:55:54.506Z,6.30
2023-04-05T18:58:22.598Z,6.20
2023-04-05T19:00:50.567Z,6.10
2023-04-05T19:03:18.668Z,6.00
2023-04-05T19:05:50.621Z,6.00
2023-04-05T19:08:20.386Z,6.00
2023-04-05T19:10:48.445Z,5.90
2023-04-05T19:13:16.426Z,5.80
2023-04-05T19:15:46.137Z,5.70
2023-04-05T19:18:14.464Z,5.60
2023-04-05T19:20:42.653Z,5.60
2023-04-05T19:23:10.653Z,5.60
2023-04-05T19:25:40.675Z,5.60
2023-04-05T19:28:08.779Z,5.60
2023-04-05T19:30:36.868Z,5.60
2023-04-05T19:33:05.242Z,5.60
2023-04-05T19:35:33.414Z,5.60
2023-04-05T19:38:01.459Z,5.60
2023-04-05T19:40:29.454Z,5.50
2023-04-05T19:42:59.688Z,5.50
2023-04-05T19:45:30.352Z,5.40
2023-04-05T19:48:00.366Z,5.20
2023-04-05T19:50:54.293Z,5.10
2023-04-05T19:53:51.070Z,5.10
2023-04-05T19:56:22.103Z,5.10
2023-04-05T19:58:57.685Z,5.10
2023-04-05T20:01:33.554Z,5.00
2023-04-05T20:04:02.711Z,5.00
2023-04-05T20:06:33.958Z,5.00
2023-04-05T20:09:05.758Z,5.00
2023-04-05T20:11:34.561Z,5.00
2023-04-05T20:14:06.743Z,5.00
2023-04-05T20:16:37.989Z,5.00
2023-04-05T20:19:08.164Z,5.00
2023-04-05T20:21:37.786Z,4.90
2023-04-05T20:24:09.154Z,4.90
2023-04-05T20:26:37.270Z,4.90
2023-04-05T20:29:09.658Z,4.90
2023-04-05T20:31:40.184Z,4.80
2023-04-05T20:34:11.280Z,4.80
2023-04-05T20:36:44.306Z,4.80
2023-04-05T20:39:12.270Z,4.70
2023-04-05T20:41:40.277Z,4.70
2023-04-05T20:44:09.973Z,4.60
2023-04-05T20:46:38.516Z,4.50
2023-04-05T20:49:07.099Z,4.40
2023-04-05T20:51:36.445Z,4.40
2023-04-05T20:54:05.073Z,4.40
2023-04-05T20:56:33.612Z,4.40
2023-04-05T20:59:01.612Z,4.40
2023-04-05T21:01:31.304Z,4.30
2023-04-05T21:03:59.352Z,4.20
2023-04-05T21:06:27.312Z,4.10
2023-04-05T21:08:55.312Z,4.10
2023-04-05T21:11:23.324Z,4.10
2023-04-05T21:13:51.230Z,4.10
2023-04-05T21:16:19.283Z,4.10
2023-04-05T21:18:48.742Z,4.10
2023-04-05T21:21:16.780Z,4.00
2023-04-05T21:23:44.772Z,4.00
2023-04-05T21:26:12.806Z,3.90
2023-04-05T21:28:41.001Z,3.90
2023-04-05T21:31:08.938Z,3.80
2023-04-05T21:33:36.893Z,3.70
2023-04-05T21:36:06.685Z,3.50
2023-04-05T21:38:34.649Z,3.40
2023-04-05T21:41:02.837Z,3.40
2023-04-05T21:43:30.799Z,3.40
2023-04-05T21:45:58.939Z,3.50
2023-04-05T21:48:27.911Z,3.30
2023-04-05T21:50:55.835Z,3.10
2023-04-05T21:53:25.570Z,3.00
2023-04-05T21:55:53.734Z,2.90
2023-04-05T21:58:21.795Z,2.80
2023-04-05T22:00:49.849Z,2.90
2023-04-05T22:03:18.000Z,2.80
2023-04-05T22:05:45.940Z,2.60
2023-04-05T22:08:14.342Z,2.50
2023-04-05T22:10:43.726Z,2.50
2023-04-05T22:13:11.785Z,2.40
2023-04-05T22:15:39.741Z,2.30
2023-04-05T22:18:07.901Z,2.20
2023-04-05T22:20:36.211Z,2.20
2023-04-05T22:23:04.138Z,2.10
2023-04-05T22:25:32.138Z,2.00
2023-04-05T22:28:01.551Z,2.00
2023-04-05T22:30:41.004Z,1.90
2023-04-05T22:33:12.871Z,1.80
2023-04-05T22:35:41.432Z,1.60
2023-04-05T22:38:10.767Z,1.50
2023-04-05T22:40:38.728Z,1.50
2023-04-05T22:43:09.523Z,1.40
2023-04-05T22:45:37.708Z,1.40
2023-04-05T22:48:06.510Z,1.40
2023-04-05T22:50:34.698Z,1.40
2023-04-05T22:53:02.652Z,1.30
2023-04-05T22:55:30.902Z,1.30
2023-04-05T22:57:58.921Z,1.20
2023-04-05T23:00:28.306Z,1.30
2023-04-05T23:02:56.391Z,1.30
2023-04-05T23:05:24.646Z,1.30
2023-04-05T23:07:52.966Z,1.40
2023-04-05T23:10:21.341Z,1.40
2023-04-05T23:12:49.853Z,1.50
2023-04-05T23:15:18.198Z,1.60
2023-04-05T23:17:48.492Z,1.60
2023-04-05T23:20:16.900Z,1.70
2023-04-05T23:22:44.891Z,1.60
2023-04-05T23:25:12.808Z,1.60
2023-04-05T23:27:40.847Z,1.50
2023-04-05T23:30:09.757Z,1.50
2023-04-05T23:32:37.696Z,1.50
2023-04-05T23:35:07.586Z,1.40
2023-04-05T23:37:35.645Z,1.50
2023-04-05T23:40:04.392Z,1.50
2023-04-05T23:42:32.427Z,1.50
2023-04-05T23:45:02.843Z,1.30
2023-04-05T23:47:31.089Z,1.20
2023-04-05T23:49:59.108Z,1.00
2023-04-05T23:52:28.619Z,0.90
2023-04-05T23:54:57.111Z,0.90
2023-04-05T23:57:25.016Z,0.80
2023-04-05T23:59:53.192Z,0.70
